Time;durP1;ratioP1;P1;durP2;ratioP2;P2;SDS_P1;SDS_P2;PMS_P1;PMS_P2;Temp;Humidity;BMP_temperature;BMP_pressure;BME280_temperature;BME280_humidity;BME280_pressure;Samples;Min_cycle;Max_cycle;Signal;HPM_P1;HPM_P2
2021/06/10 00:02:43;;;;;;;8.63;7.93;;;;;;;20.83;72.57;100558.41;10420225;28;20114;-56
2021/06/10 00:07:44;;;;;;;8.23;7.45;;;;;;;20.92;72.89;100557.31;10416490;28;20053;-56
2021/06/10 00:12:46;;;;;;;7.90;7.30;;;;;;;21.00;72.42;100564.50;10415075;28;20463;-56
2021/06/10 00:17:48;;;;;;;7.95;7.22;;;;;;;20.95;71.55;100565.06;10428154;28;20061;-56
2021/06/10 00:22:51;;;;;;;8.13;7.32;;;;;;;20.75;72.62;100563.91;10412525;28;20053;-56
2021/06/10 00:27:53;;;;;;;8.70;7.80;;;;;;;20.63;72.74;100564.28;10406696;28;20124;-56
2021/06/10 00:32:56;;;;;;;8.13;7.32;;;;;;;20.73;71.73;100558.69;10419436;28;20145;-56
2021/06/10 00:37:59;;;;;;;8.05;7.32;;;;;;;20.76;71.37;100554.75;10416012;28;20048;-56
2021/06/10 00:43:01;;;;;;;7.93;7.27;;;;;;;20.79;71.18;100570.63;10411763;28;20103;-56
2021/06/10 00:48:02;;;;;;;10.23;7.05;;;;;;;20.72;71.07;100575.94;10418465;27;20360;-56
2021/06/10 00:53:04;;;;;;;8.35;7.57;;;;;;;20.74;70.74;100573.03;10418667;28;20115;-56
2021/06/10 00:58:06;;;;;;;7.70;7.10;;;;;;;20.72;71.16;100577.81;10412930;28;20065;-60
2021/06/10 01:03:08;;;;;;;7.85;7.13;;;;;;;20.68;71.00;100574.59;10414878;28;20513;-56
2021/06/10 01:08:24;;;;;;;7.82;7.10;;;;;;;20.63;71.09;100577.00;10411643;28;20205;-56
2021/06/10 01:13:32;;;;;;;7.47;6.88;;;;;;;20.58;70.83;100574.84;10418515;28;22016;-55
2021/06/10 01:18:38;;;;;;;7.35;6.65;;;;;;;20.47;70.70;100572.53;10403855;28;20092;-55
2021/06/10 01:23:48;;;;;;;7.53;6.93;;;;;;;20.55;71.24;100574.34;10427656;28;20090;-56
2021/06/10 01:28:52;;;;;;;7.25;6.55;;;;;;;20.47;71.75;100570.66;10412158;28;20144;-56
2021/06/10 01:33:57;;;;;;;7.90;7.20;;;;;;;20.47;71.31;100570.66;10414153;28;20156;-55
2021/06/10 01:39:03;;;;;;;7.38;6.72;;;;;;;20.50;71.24;100572.19;10416820;28;20048;-57
2021/06/10 01:44:07;;;;;;;7.40;6.70;;;;;;;20.42;71.16;100570.38;10407540;28;20132;-56
2021/06/10 01:49:15;;;;;;;;;;;;;;;20.28;71.80;100573.84;10456395;28;20612;-56
2021/06/10 01:54:17;;;;;;;7.55;6.85;;;;;;;20.23;72.21;100585.19;10460472;28;19921;-56
2021/06/10 01:59:23;;;;;;;8.13;7.53;;;;;;;20.13;72.26;100571.94;10451621;28;20124;-56
2021/06/10 02:04:25;;;;;;;8.68;7.88;;;;;;;20.16;72.70;100575.28;10456516;28;20491;-55
2021/06/10 02:09:27;;;;;;;8.07;7.28;;;;;;;20.11;73.08;100579.34;10442009;28;20064;-56
2021/06/10 02:14:29;;;;;;;9.13;8.20;;;;;;;20.17;73.32;100582.38;10442984;28;20123;-56
2021/06/10 02:19:31;;;;;;;9.07;8.18;;;;;;;20.09;73.66;100572.47;10438227;28;20142;-56
2021/06/10 02:24:32;;;;;;;8.65;7.85;;;;;;;20.04;74.00;100578.41;10471745;28;20068;-56
2021/06/10 02:29:34;;;;;;;8.85;8.05;;;;;;;20.03;74.31;100575.88;10481324;28;20044;-55
2021/06/10 02:34:36;;;;;;;9.75;8.95;;;;;;;19.95;74.76;100576.75;10476520;28;20064;-55
2021/06/10 02:39:40;;;;;;;9.13;8.20;;;;;;;19.94;74.89;100573.22;10473163;28;20068;-55
2021/06/10 02:44:43;;;;;;;9.80;8.77;;;;;;;19.92;75.23;100577.09;10447210;28;20072;-55
2021/06/10 02:49:46;;;;;;;;;;;;;;;19.85;75.73;100573.44;10469641;28;20073;-55
2021/06/10 02:54:49;;;;;;;9.52;8.70;;;;;;;19.90;76.27;100581.84;10461642;28;19972;-55
2021/06/10 02:59:51;;;;;;;11.07;9.02;;;;;;;19.96;75.53;100587.38;10456166;28;20143;-55
2021/06/10 03:04:53;;;;;;;9.18;8.35;;;;;;;19.95;75.87;100576.75;10464213;28;20044;-55
2021/06/10 03:09:55;;;;;;;9.23;8.35;;;;;;;19.98;75.31;100571.00;10457516;28;20081;-56
2021/06/10 03:14:57;;;;;;;8.73;7.82;;;;;;;19.93;75.33;100576.09;10454629;28;20131;-55
2021/06/10 03:19:59;;;;;;;9.40;8.57;;;;;;;19.86;75.53;100575.13;10459961;28;20076;-55
2021/06/10 03:25:02;;;;;;;8.15;7.45;;;;;;;19.72;75.73;100573.97;10470459;28;20060;-56
2021/06/10 03:30:07;;;;;;;8.50;7.70;;;;;;;19.58;76.60;100583.66;10468624;28;20159;-55
2021/06/10 03:35:11;;;;;;;8.77;7.97;;;;;;;19.48;77.30;100583.00;10465711;28;20076;-55
2021/06/10 03:40:13;;;;;;;9.87;8.97;;;;;;;19.54;76.30;100582.31;10453466;28;20106;-57
2021/06/10 03:45:15;;;;;;;9.45;8.63;;;;;;;19.57;76.17;100581.97;10460319;28;20314;-55
2021/06/10 03:50:17;;;;;;;10.23;9.32;;;;;;;19.60;75.78;100587.00;10464944;28;20094;-56
2021/06/10 03:55:18;;;;;;;9.43;8.52;;;;;;;19.57;75.84;100582.78;10455509;28;20147;-56
2021/06/10 04:00:20;;;;;;;9.48;8.57;;;;;;;19.51;75.60;100571.88;10453285;28;20067;-55
2021/06/10 04:05:23;;;;;;;9.88;8.52;;;;;;;19.49;75.80;100579.31;10443577;28;20052;-56
2021/06/10 04:10:25;;;;;;;9.35;8.45;;;;;;;19.51;75.52;100582.66;10452235;28;20465;-55
2021/06/10 04:15:27;;;;;;;9.73;8.77;;;;;;;19.49;75.78;100585.53;10443926;28;20443;-62
2021/06/10 04:20:28;;;;;;;9.93;9.05;;;;;;;19.49;76.06;100584.72;10452770;28;20106;-56
2021/06/10 04:25:30;;;;;;;10.80;9.25;;;;;;;19.41;76.35;100582.84;10467415;28;20074;-55
2021/06/10 04:30:31;;;;;;;9.85;8.95;;;;;;;19.45;76.37;100588.75;10467418;28;20044;-55
2021/06/10 04:35:33;;;;;;;9.43;8.55;;;;;;;19.58;75.91;100591.75;10460769;28;20056;-55
2021/06/10 04:40:35;;;;;;;10.10;9.20;;;;;;;19.57;75.83;100574.69;10463691;28;20053;-55
2021/06/10 04:45:36;;;;;;;10.32;9.32;;;;;;;19.56;76.11;100586.53;10471549;28;20471;-55
2021/06/10 04:50:38;;;;;;;11.02;9.98;;;;;;;19.57;75.64;100582.78;10456828;28;20041;-55
2021/06/10 04:55:40;;;;;;;12.02;9.70;;;;;;;19.67;75.47;100593.41;10461502;28;20225;-55
2021/06/10 05:00:41;;;;;;;10.75;9.75;;;;;;;19.72;75.24;100600.97;10467163;28;20077;-56
2021/06/10 05:05:43;;;;;;;11.50;10.38;;;;;;;19.76;75.09;100608.56;10433742;28;20499;-64
2021/06/10 05:10:44;;;;;;;10.63;9.60;;;;;;;19.86;75.04;100608.38;10451377;28;20457;-64
2021/06/10 05:15:46;;;;;;;11.07;9.98;;;;;;;19.97;74.26;100604.44;10452605;28;20127;-63
2021/06/10 05:20:48;;;;;;;10.63;9.55;;;;;;;19.96;74.34;100594.66;10447562;28;20103;-62
2021/06/10 05:25:50;;;;;;;15.85;10.88;;;;;;;19.97;74.81;100599.03;10456414;28;20072;-64
2021/06/10 05:30:51;;;;;;;12.00;10.27;;;;;;;19.93;74.31;100595.00;10453613;28;20086;-66
2021/06/10 05:35:53;;;;;;;11.63;10.45;;;;;;;19.97;74.47;100599.03;10455403;28;20135;-65
2021/06/10 05:40:54;;;;;;;9.77;8.82;;;;;;;20.07;73.48;100602.38;10452046;28;20069;-64
2021/06/10 05:45:56;;;;;;;10.90;9.10;;;;;;;20.17;73.43;100602.13;10450772;28;20059;-64
2021/06/10 05:50:57;;;;;;;10.48;9.38;;;;;;;20.28;73.18;100600.88;10459963;28;20521;-65
2021/06/10 05:55:59;;;;;;;10.85;9.75;;;;;;;20.41;72.84;100600.31;10453662;28;20476;-65
2021/06/10 06:01:00;;;;;;;11.25;10.30;;;;;;;20.52;72.26;100607.97;10456346;28;20554;-64
2021/06/10 06:06:05;;;;;;;10.68;9.65;;;;;;;20.46;71.85;100604.16;10453501;28;20108;-64
2021/06/10 06:11:07;;;;;;;11.52;9.68;;;;;;;20.59;72.60;100613.53;10454771;28;20072;-62
2021/06/10 06:16:09;;;;;;;10.30;9.35;;;;;;;20.64;71.68;100617.38;10467997;28;20056;-64
2021/06/10 06:21:12;;;;;;;10.15;9.23;;;;;;;20.71;71.97;100622.09;10458058;28;20823;-65
2021/06/10 06:26:13;;;;;;;12.40;9.73;;;;;;;20.75;71.85;100618.84;10468928;28;20151;-65
2021/06/10 06:31:15;;;;;;;10.43;9.40;;;;;;;20.89;71.46;100622.59;10467662;28;20048;-65
2021/06/10 06:36:17;;;;;;;9.75;8.82;;;;;;;21.07;71.26;100616.03;10454107;28;20044;-64
2021/06/10 06:41:18;;;;;;;10.48;9.43;;;;;;;21.33;69.97;100629.13;10457066;28;20123;-65
2021/06/10 06:46:20;;;;;;;11.25;10.25;;;;;;;21.53;68.98;100627.59;10465582;28;20481;-65
2021/06/10 06:51:22;;;;;;;10.07;9.02;;;;;;;21.68;69.13;100634.91;10467406;28;20105;-65
2021/06/10 06:56:24;;;;;;;10.15;9.15;;;;;;;21.83;67.74;100624.06;10467979;28;20113;-63
2021/06/10 07:01:25;;;;;;;9.57;8.68;;;;;;;22.01;67.82;100629.06;10466842;28;20744;-64
2021/06/10 07:06:27;;;;;;;9.13;8.32;;;;;;;22.13;66.75;100619.41;10468992;28;20074;-64
2021/06/10 07:11:28;;;;;;;9.77;8.77;;;;;;;22.34;66.27;100624.06;10466792;28;20113;-65
2021/06/10 07:16:30;;;;;;;9.13;8.25;;;;;;;22.52;65.95;100629.03;10470368;28;20536;-65
2021/06/10 07:21:49;;;;;;;15.83;14.23;;;;;;;22.60;65.21;100628.06;10467921;28;20827;-65
2021/06/10 07:27:10;;;;;;;9.57;8.68;;;;;;;22.77;65.66;100634.94;10469879;28;20052;-65
2021/06/10 07:32:12;;;;;;;9.80;8.82;;;;;;;22.86;65.08;100630.19;10464377;28;20163;-64
2021/06/10 07:37:14;;;;;;;9.55;8.70;;;;;;;23.07;64.75;100633.91;10468321;28;20047;-65
2021/06/10 07:42:15;;;;;;;12.80;9.15;;;;;;;23.20;64.10;100635.94;10468577;28;20579;-64
2021/06/10 07:47:17;;;;;;;7.95;7.10;;;;;;;23.45;63.68;100639.03;10469257;28;20412;-64
2021/06/10 07:52:22;;;;;;;8.93;8.13;;;;;;;23.72;62.23;100641.88;10469681;28;20052;-66
2021/06/10 07:57:24;;;;;;;9.70;8.90;;;;;;;23.91;61.83;100641.19;10466169;28;20154;-65
2021/06/10 08:02:26;;;;;;;8.48;7.78;;;;;;;24.21;59.25;100645.50;10463943;28;20131;-64
2021/06/10 08:07:27;;;;;;;10.60;9.13;;;;;;;24.43;57.20;100638.88;10467265;28;20070;-64
2021/06/10 08:12:29;;;;;;;8.68;7.97;;;;;;;24.66;56.74;100637.69;10466825;28;20083;-66
2021/06/10 08:17:35;;;;;;;9.32;8.52;;;;;;;24.89;56.71;100634.53;10464291;28;20059;-66
2021/06/10 08:22:36;;;;;;;9.73;8.82;;;;;;;25.01;55.06;100635.63;10470690;28;20840;-66
2021/06/10 08:27:38;;;;;;;9.95;9.25;;;;;;;25.20;54.61;100633.09;10468598;28;20135;-65
2021/06/10 08:32:39;;;;;;;9.20;8.40;;;;;;;25.35;54.83;100636.44;10466991;28;20559;-66
2021/06/10 08:37:42;;;;;;;9.35;8.48;;;;;;;25.51;54.42;100639.78;10465545;28;20124;-66
2021/06/10 08:42:45;;;;;;;9.90;9.02;;;;;;;25.55;53.72;100641.03;10464394;28;20444;-67
2021/06/10 08:47:47;;;;;;;;;;;;;;;25.49;52.90;100652.78;10461158;28;20126;-66
2021/06/10 08:52:51;;;;;;;10.82;9.93;;;;;;;25.58;52.95;100644.19;10462573;28;20051;-67
2021/06/10 08:57:53;;;;;;;10.20;9.32;;;;;;;25.80;52.71;100643.91;10465312;28;20573;-65
2021/06/10 09:03:01;;;;;;;8.85;8.07;;;;;;;26.13;52.53;100642.13;10471438;28;20118;-66
2021/06/10 09:08:09;;;;;;;8.15;7.40;;;;;;;26.55;51.98;100642.53;10462283;28;20048;-67
2021/06/10 09:13:10;;;;;;;8.88;8.18;;;;;;;26.60;51.48;100626.31;10464154;28;20044;-66
2021/06/10 09:18:12;;;;;;;11.85;10.90;;;;;;;26.50;49.83;100631.41;10467814;28;20075;-67
2021/06/10 09:23:27;;;;;;;9.32;8.63;;;;;;;26.61;51.67;100634.28;10467779;28;20044;-64
2021/06/10 09:28:38;;;;;;;9.05;8.23;;;;;;;26.93;49.41;100636.19;10472037;28;20098;-66
2021/06/10 09:33:43;;;;;;;9.63;8.82;;;;;;;27.02;49.58;100629.38;10467610;28;20164;-66
2021/06/10 09:39:08;;;;;;;8.00;7.10;;;;;;;27.42;48.01;100639.97;10471770;28;20475;-66
2021/06/10 09:44:09;;;;;;;8.68;7.88;;;;;;;27.93;45.69;100628.91;10473566;28;20154;-65
2021/06/10 09:49:11;;;;;;;7.38;6.78;;;;;;;28.29;43.20;100627.19;10473722;28;21470;-66
2021/06/10 09:54:42;;;;;;;7.78;7.00;;;;;;;28.55;42.95;100626.81;10469224;28;20066;-66
2021/06/10 09:59:54;;;;;;;6.30;5.70;;;;;;;28.76;43.48;100621.03;10466373;28;20072;-66
2021/06/10 10:04:59;;;;;;;7.32;6.68;;;;;;;29.07;40.97;100617.97;10471246;28;20059;-70
2021/06/10 10:10:03;;;;;;;8.60;7.80;;;;;;;29.12;41.34;100613.69;10469292;28;20084;-65
2021/06/10 10:15:05;;;;;;;6.90;6.40;;;;;;;29.39;40.49;100619.53;10471731;28;21415;-65
2021/06/10 10:20:09;;;;;;;7.20;6.03;;;;;;;29.63;41.74;100609.38;10472138;28;20131;-66
2021/06/10 10:25:11;;;;;;;6.65;6.15;;;;;;;29.49;38.71;100614.28;10473413;28;20130;-66
2021/06/10 10:30:13;;;;;;;5.57;5.07;;;;;;;29.14;40.68;100589.59;10470243;28;20044;-66
2021/06/10 10:35:21;;;;;;;;;;;;;;;29.50;39.29;100591.28;10471623;28;20063;-65
2021/06/10 10:40:29;;;;;;;6.80;5.75;;;;;;;30.30;35.58;100592.34;10428770;28;20401;-66
2021/06/10 10:45:50;;;;;;;7.20;6.50;;;;;;;30.77;35.36;100590.44;10423821;28;20053;-64
2021/06/10 10:50:53;;;;;;;6.38;5.82;;;;;;;30.92;35.92;100584.34;10424314;28;20049;-66
2021/06/10 10:56:09;;;;;;;7.75;7.05;;;;;;;30.26;36.29;100579.34;10425407;28;20102;-66
2021/06/10 11:01:11;;;;;;;6.40;5.90;;;;;;;30.42;37.11;100567.59;10429769;28;20063;-66
2021/06/10 11:06:22;;;;;;;6.22;5.72;;;;;;;30.92;35.91;100576.91;10420184;28;20059;-65
2021/06/10 11:11:57;;;;;;;7.32;6.80;;;;;;;30.99;34.97;100566.63;10424778;28;20184;-65
2021/06/10 11:17:16;;;;;;;7.90;7.20;;;;;;;31.33;32.63;100566.56;10463134;28;20052;-65
2021/06/10 11:22:37;;;;;;;8.48;7.78;;;;;;;31.43;33.73;100570.53;10474379;28;20101;-65
2021/06/10 11:27:40;;;;;;;8.48;7.88;;;;;;;31.20;31.87;100565.00;10467656;28;20048;-66
2021/06/10 11:33:10;;;;;;;6.22;5.72;;;;;;;31.68;32.69;100554.38;10463870;28;20215;-65
2021/06/10 11:38:19;;;;;;;6.53;6.03;;;;;;;31.83;30.97;100552.91;10460705;28;20057;-65
2021/06/10 11:43:23;;;;;;;7.10;6.47;;;;;;;31.90;30.34;100556.25;10465878;28;20194;-65
2021/06/10 11:48:53;;;;;;;6.50;6.00;;;;;;;32.10;29.75;100541.03;10466842;28;20131;-66
2021/06/10 11:54:06;;;;;;;5.82;5.35;;;;;;;31.50;31.30;100552.75;10460867;28;20051;-65
2021/06/10 11:59:23;;;;;;;8.18;7.47;;;;;;;31.82;30.89;100535.53;10467122;28;20173;-64
2021/06/10 12:04:31;;;;;;;8.05;7.40;;;;;;;31.27;32.22;100530.97;10425564;28;20482;-65
2021/06/10 12:09:33;;;;;;;7.68;6.97;;;;;;;31.76;32.94;100522.00;10463250;28;20127;-66
2021/06/10 12:14:38;;;;;;;7.47;6.97;;;;;;;31.01;32.91;100514.97;10459163;28;20052;-64
2021/06/10 12:19:40;;;;;;;6.57;6.18;;;;;;;31.16;32.08;100513.53;10464637;28;20113;-66
2021/06/10 12:24:42;;;;;;;7.15;6.57;;;;;;;31.66;30.86;100504.28;10470596;28;20098;-65
2021/06/10 12:29:51;;;;;;;6.55;6.05;;;;;;;31.65;32.02;100486.09;10466741;28;20124;-63
2021/06/10 12:34:54;;;;;;;7.32;6.78;;;;;;;31.58;30.49;100496.47;10466384;28;20032;-65
2021/06/10 12:39:59;;;;;;;7.53;6.82;;;;;;;31.17;32.54;100485.78;10465903;28;20621;-65
2021/06/10 12:45:01;;;;;;;6.05;5.65;;;;;;;31.44;32.67;100489.69;10465599;28;20174;-64
2021/06/10 12:50:18;;;;;;;8.10;6.57;;;;;;;31.58;31.15;100490.97;10470381;28;20086;-64
2021/06/10 12:55:27;;;;;;;7.47;6.88;;;;;;;31.24;32.74;100484.75;10465549;28;20087;-64
2021/06/10 13:00:32;;;;;;;7.22;6.53;;;;;;;30.89;33.38;100469.44;10464536;28;20052;-66
2021/06/10 13:05:34;;;;;;;7.45;6.93;;;;;;;30.80;33.69;100475.34;10465289;28;20128;-66
2021/06/10 13:10:44;;;;;;;7.30;6.78;;;;;;;30.76;33.05;100468.72;10463905;28;20044;-64
2021/06/10 13:15:47;;;;;;;7.80;7.13;;;;;;;30.40;33.90;100450.81;10457729;28;20698;-64
2021/06/10 13:20:58;;;;;;;7.22;6.55;;;;;;;30.74;33.71;100459.88;10454923;28;20690;-66
2021/06/10 13:26:06;;;;;;;7.10;6.53;;;;;;;30.63;33.52;100458.91;10472453;28;20566;-65
2021/06/10 13:31:23;;;;;;;6.82;6.32;;;;;;;30.85;33.20;100456.19;10457446;28;20060;-65
2021/06/10 13:36:29;;;;;;;6.65;6.15;;;;;;;30.79;32.65;100446.22;10463285;28;20059;-67
2021/06/10 13:41:32;;;;;;;6.93;6.43;;;;;;;30.80;33.06;100439.63;10460742;28;20132;-65
2021/06/10 13:46:33;;;;;;;6.40;5.90;;;;;;;30.92;33.02;100428.53;10461909;28;20068;-64
2021/06/10 13:51:36;;;;;;;7.00;6.38;;;;;;;30.91;32.06;100418.63;10457630;28;20729;-65
2021/06/10 13:56:37;;;;;;;6.68;6.18;;;;;;;30.75;32.47;100419.53;10464996;28;20108;-64
2021/06/10 14:01:39;;;;;;;7.70;6.85;;;;;;;30.16;33.08;100401.56;10471389;28;20078;-66
2021/06/10 14:06:40;;;;;;;6.50;5.90;;;;;;;30.26;33.42;100400.91;10469892;28;22857;-67
2021/06/10 14:11:42;;;;;;;6.50;6.00;;;;;;;30.20;32.68;100396.44;10461210;28;20529;-66
2021/06/10 14:16:45;;;;;;;6.47;5.88;;;;;;;29.76;33.25;100384.16;10468971;28;20121;-67
2021/06/10 14:21:47;;;;;;;6.10;5.60;;;;;;;29.72;33.10;100393.97;10469937;28;20048;-66
2021/06/10 14:26:49;;;;;;;;;;;;;;;29.93;31.37;100397.91;10466799;28;20566;-67
2021/06/10 14:36:52;;;;;;;8.27;6.30;;;;;;;29.82;32.71;100390.63;10453476;22;20411;-62
2021/06/10 14:41:54;;;;;;;6.00;5.40;;;;;;;29.87;32.16;100400.84;10465460;28;20056;-63
2021/06/10 14:46:55;;;;;;;6.87;6.10;;;;;;;29.52;33.14;100394.44;10464962;28;20163;-63
2021/06/10 14:51:57;;;;;;;6.90;6.40;;;;;;;29.57;33.68;100389.03;10463407;28;20049;-64
2021/06/10 14:56:58;;;;;;;7.57;6.70;;;;;;;29.57;33.34;100391.78;10465802;28;20130;-64
2021/06/10 15:02:00;;;;;;;6.13;5.73;;;;;;;29.66;33.10;100399.63;10463712;28;20056;-64
2021/06/10 15:07:01;;;;;;;6.00;5.53;;;;;;;29.60;33.95;100405.00;10467358;28;20124;-65
2021/06/10 15:12:03;;;;;;;8.07;6.15;;;;;;;29.26;32.98;100406.84;10462631;28;20051;-61
2021/06/10 15:17:04;;;;;;;6.28;5.68;;;;;;;29.47;33.36;100399.84;10460422;28;20485;-62
2021/06/10 15:22:06;;;;;;;5.93;5.37;;;;;;;29.47;32.96;100397.09;10469992;28;20048;-64
2021/06/10 15:27:07;;;;;;;5.83;5.40;;;;;;;29.46;33.14;100397.34;10466434;28;20139;-64
2021/06/10 15:32:09;;;;;;;4.73;4.33;;;;;;;29.53;33.95;100392.53;10456373;28;20136;-63
2021/06/10 15:37:10;;;;;;;5.67;5.17;;;;;;;29.53;33.97;100396.13;10464669;28;20125;-63
2021/06/10 15:42:12;;;;;;;5.27;4.87;;;;;;;29.11;32.98;100393.63;10463503;28;20212;-64
2021/06/10 15:47:14;;;;;;;6.80;4.93;;;;;;;29.13;34.25;100402.44;10464929;28;20087;-63
2021/06/10 15:52:15;;;;;;;5.00;4.47;;;;;;;29.18;33.31;100399.78;10464798;28;20056;-63
2021/06/10 15:57:17;;;;;;;5.68;5.07;;;;;;;29.20;32.07;100394.91;10466102;28;20078;-63
2021/06/10 16:02:21;;;;;;;6.00;4.45;;;;;;;28.98;32.15;100399.41;10463665;28;20062;-62
2021/06/10 16:07:22;;;;;;;5.22;4.53;;;;;;;28.99;32.36;100393.66;10465733;28;20120;-62
2021/06/10 16:12:24;;;;;;;4.28;3.97;;;;;;;28.85;32.33;100389.53;10459468;28;20147;-63
2021/06/10 16:17:25;;;;;;;4.50;4.17;;;;;;;28.81;32.42;100382.84;10460282;28;20413;-61
2021/06/10 16:22:26;;;;;;;4.20;3.63;;;;;;;28.62;32.99;100379.47;10456245;28;20480;-63
2021/06/10 16:27:28;;;;;;;4.70;4.30;;;;;;;28.61;32.84;100383.25;10464574;28;20198;-63
2021/06/10 16:32:30;;;;;;;4.35;4.05;;;;;;;28.50;32.91;100377.53;10457930;28;20112;-62
2021/06/10 16:37:34;;;;;;;4.63;4.20;;;;;;;28.49;33.05;100370.38;10442944;28;20055;-63
2021/06/10 16:42:38;;;;;;;5.13;4.63;;;;;;;28.37;32.95;100370.41;10458375;28;20119;-63
2021/06/10 16:47:40;;;;;;;4.53;4.07;;;;;;;28.30;33.05;100371.56;10442231;28;20516;-61
2021/06/10 16:52:42;;;;;;;;;;;;;;;28.32;33.36;100369.44;10461196;28;20052;-64
2021/06/10 16:57:43;;;;;;;3.83;3.63;;;;;;;28.21;33.34;100352.78;10460686;28;20383;-64
2021/06/10 17:07:51;;;;;;;3.95;3.35;;;;;;;27.85;32.98;100348.34;10461535;28;20049;-63
2021/06/10 17:12:53;;;;;;;4.30;4.00;;;;;;;27.74;33.27;100341.75;10465151;28;20067;-63
2021/06/10 17:17:55;;;;;;;4.38;3.75;;;;;;;27.76;32.87;100347.84;10463908;28;20128;-63
2021/06/10 17:22:57;;;;;;;4.33;3.70;;;;;;;27.60;32.83;100340.31;10442046;28;20254;-63
2021/06/10 17:27:59;;;;;;;4.45;4.05;;;;;;;27.58;33.18;100342.44;10446800;28;20294;-64
2021/06/10 17:33:00;;;;;;;4.03;3.25;;;;;;;27.55;32.97;100337.44;10445309;28;20566;-62
2021/06/10 17:38:02;;;;;;;6.75;4.07;;;;;;;27.51;33.18;100343.38;10448012;28;20507;-64
2021/06/10 17:43:03;;;;;;;3.60;3.35;;;;;;;27.42;32.94;100338.50;10435801;28;20057;-63
2021/06/10 17:48:07;;;;;;;3.90;3.60;;;;;;;27.32;33.15;100356.28;10441564;28;20524;-65
2021/06/10 17:53:09;;;;;;;4.25;3.45;;;;;;;27.28;33.49;100356.97;10460762;28;20071;-63
2021/06/10 17:58:10;;;;;;;3.38;3.15;;;;;;;27.17;33.36;100359.41;10457236;28;20127;-64
2021/06/10 18:03:12;;;;;;;3.58;3.28;;;;;;;27.14;33.85;100354.41;10457805;28;20473;-64
2021/06/10 18:08:13;;;;;;;3.60;3.30;;;;;;;27.05;33.97;100358.50;10460469;28;20139;-64
2021/06/10 18:13:14;;;;;;;3.38;3.08;;;;;;;26.99;34.53;100373.06;10460895;28;20060;-63
2021/06/10 18:18:16;;;;;;;3.40;3.10;;;;;;;26.86;34.92;100363.16;10462252;28;20202;-63
2021/06/10 18:23:18;;;;;;;4.93;3.83;;;;;;;26.81;34.93;100366.59;10458363;28;20092;-64
2021/06/10 18:28:19;;;;;;;3.97;3.20;;;;;;;26.74;35.37;100375.91;10460766;28;20060;-63
2021/06/10 18:33:23;;;;;;;4.18;3.25;;;;;;;26.64;36.33;100376.41;10447473;28;20052;-62
2021/06/10 18:38:24;;;;;;;4.97;3.80;;;;;;;26.52;36.10;100375.50;10457321;28;20054;-62
2021/06/10 18:43:26;;;;;;;4.50;4.07;;;;;;;26.46;35.92;100380.78;10461403;28;20047;-62
2021/06/10 18:48:28;;;;;;;3.75;3.40;;;;;;;26.37;35.89;100373.94;10458116;28;20315;-62
2021/06/10 18:53:29;;;;;;;3.80;3.50;;;;;;;26.28;36.29;100388.94;10458666;28;21001;-64
2021/06/10 18:58:30;;;;;;;3.53;3.22;;;;;;;26.18;37.04;100388.59;10451138;28;20626;-64
2021/06/10 19:03:32;;;;;;;3.55;3.28;;;;;;;26.05;37.00;100395.03;10454216;28;20127;-63
2021/06/10 19:08:33;;;;;;;3.70;3.17;;;;;;;25.98;37.41;100395.03;10444213;28;20050;-64
2021/06/10 19:13:35;;;;;;;3.58;3.08;;;;;;;25.88;37.71;100398.28;10441697;28;20079;-63
2021/06/10 19:18:37;;;;;;;3.80;3.50;;;;;;;25.79;38.17;100402.28;10454288;28;20130;-64
2021/06/10 19:23:40;;;;;;;5.27;3.80;;;;;;;25.68;38.67;100401.13;10453271;28;20127;-63
2021/06/10 19:28:42;;;;;;;4.78;3.55;;;;;;;25.59;38.97;100406.00;10463030;28;20057;-62
2021/06/10 19:34:43;;;;;;;3.20;2.90;;;;;;;25.46;38.95;100397.91;10454953;28;20048;-63
2021/06/10 19:39:21;;;;;;;3.83;3.42;;;;;;;25.39;39.18;100408.00;10454778;28;20145;-62
2021/06/10 19:44:22;;;;;;;3.85;3.20;;;;;;;25.27;39.11;100405.09;10455214;28;20057;-62
2021/06/10 19:49:24;;;;;;;4.07;3.15;;;;;;;25.14;40.06;100405.97;10414362;28;20143;-63
2021/06/10 19:54:25;;;;;;;4.20;3.30;;;;;;;25.08;39.83;100422.38;10414494;28;20045;-62
2021/06/10 19:59:27;;;;;;;4.07;3.28;;;;;;;24.97;40.77;100416.53;10417155;28;20128;-63
2021/06/10 20:04:28;;;;;;;2.40;2.15;;;;;;;24.85;45.77;100412.81;10421728;28;20112;-56
2021/06/10 20:09:30;;;;;;;5.20;3.33;;;;;;;24.79;44.34;100413.66;10406304;28;20456;-55
2021/06/10 20:14:32;;;;;;;3.72;3.30;;;;;;;24.71;43.42;100417.44;10414609;28;20051;-52
2021/06/10 20:19:35;;;;;;;6.80;4.50;;;;;;;24.61;44.03;100417.88;10415243;28;20068;-56
2021/06/10 20:24:36;;;;;;;4.18;3.78;;;;;;;24.57;43.91;100416.59;10421992;28;20105;-55
2021/06/10 20:35:02;;;;;;;7.32;6.78;;;;;;;24.37;45.13;100423.97;10419766;22;20047;-56
2021/06/10 20:40:08;;;;;;;7.40;6.90;;;;;;;24.33;45.48;100426.25;10448235;27;20561;-59
2021/06/10 20:45:10;;;;;;;7.55;6.85;;;;;;;24.21;46.15;100428.75;10457929;28;20043;-53
2021/06/10 20:50:12;;;;;;;8.00;7.38;;;;;;;24.12;47.27;100430.00;10459711;28;20068;-52
2021/06/10 20:55:13;;;;;;;8.13;7.53;;;;;;;24.03;48.13;100434.00;10460978;28;20138;-51
2021/06/10 21:00:16;;;;;;;7.95;7.00;;;;;;;23.92;47.92;100424.56;10462656;28;20165;-59
2021/06/10 21:05:18;;;;;;;7.88;7.13;;;;;;;23.85;48.94;100427.25;10459780;28;20149;-57
2021/06/10 21:10:19;;;;;;;7.82;7.28;;;;;;;23.78;49.16;100434.53;10457291;28;20632;-50
2021/06/10 21:15:21;;;;;;;8.52;7.72;;;;;;;23.70;49.61;100421.97;10473014;28;20060;-51
2021/06/10 21:20:22;;;;;;;7.40;6.80;;;;;;;23.63;49.49;100432.84;10481920;28;20068;-51
2021/06/10 21:25:24;;;;;;;8.52;7.65;;;;;;;23.53;49.97;100432.41;10471591;28;20071;-51
2021/06/10 21:30:25;;;;;;;7.90;7.30;;;;;;;23.47;50.63;100430.50;10469187;28;20097;-57
2021/06/10 21:35:27;;;;;;;7.68;6.90;;;;;;;23.45;51.00;100429.88;10479982;28;20459;-50
2021/06/10 21:40:28;;;;;;;7.63;6.85;;;;;;;23.40;50.45;100427.75;10469753;28;20672;-53
2021/06/10 21:45:30;;;;;;;8.80;7.95;;;;;;;23.32;51.09;100430.66;10484360;28;20386;-50
2021/06/10 21:50:32;;;;;;;8.00;7.22;;;;;;;23.27;51.87;100423.13;10479987;28;20068;-55
2021/06/10 21:55:34;;;;;;;8.23;7.55;;;;;;;23.25;52.13;100436.03;10504011;28;20052;-53
2021/06/10 22:00:35;;;;;;;9.45;8.55;;;;;;;23.17;52.41;100427.25;10486141;28;20060;-56
2021/06/10 22:05:37;;;;;;;9.23;8.20;;;;;;;23.12;53.17;100431.41;10485626;28;20404;-50
2021/06/10 22:10:41;;;;;;;8.65;7.85;;;;;;;23.08;53.04;100440.13;10497543;28;20059;-53
2021/06/10 22:15:44;;;;;;;8.70;8.10;;;;;;;23.00;53.17;100432.13;10491293;28;20147;-49
2021/06/10 22:20:46;;;;;;;8.98;8.18;;;;;;;22.94;53.32;100429.22;10496589;28;20060;-55
2021/06/10 22:25:48;;;;;;;8.93;8.23;;;;;;;22.86;53.67;100432.06;10485653;28;20072;-50
2021/06/10 22:30:49;;;;;;;9.05;8.35;;;;;;;22.76;53.93;100432.44;10482561;28;20195;-50
2021/06/10 22:35:53;;;;;;;8.38;7.57;;;;;;;22.73;54.02;100438.28;10469752;28;20131;-57
2021/06/10 22:40:59;;;;;;;8.20;7.47;;;;;;;22.68;54.37;100431.75;10493742;28;20141;-52
2021/06/10 22:46:03;;;;;;;8.30;7.50;;;;;;;22.60;54.48;100433.59;10485395;28;20458;-51
2021/06/10 22:51:06;;;;;;;7.57;6.97;;;;;;;22.57;54.54;100431.25;10475830;28;20567;-56
2021/06/10 22:56:09;;;;;;;7.18;6.65;;;;;;;22.52;54.71;100441.88;10461204;28;20301;-52
2021/06/10 23:01:14;;;;;;;7.65;6.93;;;;;;;22.47;55.08;100446.22;10483427;28;20067;-51
2021/06/10 23:06:18;;;;;;;8.02;7.28;;;;;;;22.42;55.20;100447.63;10500914;28;20517;-54
2021/06/10 23:11:19;;;;;;;7.93;7.20;;;;;;;22.37;55.20;100444.69;10506050;28;20121;-50
2021/06/10 23:16:21;;;;;;;7.57;6.97;;;;;;;22.33;55.35;100439.84;10486281;28;20063;-49
2021/06/10 23:21:22;;;;;;;7.32;6.72;;;;;;;22.29;55.34;100441.25;10482929;28;20128;-53
2021/06/10 23:26:24;;;;;;;7.65;6.97;;;;;;;22.20;55.42;100438.69;10494195;28;20070;-51
2021/06/10 23:31:25;;;;;;;7.78;7.18;;;;;;;22.11;55.52;100442.53;10470783;28;22778;-51